• Join FlightAware (Why Join?)
  • Login
  • US Flag 
09:32AM EDT


 

Airport Tracker/Info


-or-


 

Live Flight TrackerFlight Track Log ✈ DAL3672 ✈ 12-Apr-2013 ✈ KDTW - KMHT

Flight Track Log - Related Links

Times and Time Zones

All times are in EDT time to prevent confusion due to time zone crossing. See the DAL3672 flight status page for this flight to view local times or setup timezone preferences in your user account.

Time Position Orientation Groundspeed Altitude Reporting Facility
EDT Latitude Longitude Course Direction KTS MPH feet Rate Location/Type
11:41AM 42.1994 -83.3581 170° South 150 173 1,500  Level Cleveland Center
11:42AM 42.1725 -83.3514 170° South 188 216 2,700 2,160 Climbing Cleveland Center
11:43AM 42.1167 -83.3378 170° South 221 254 5,000 2,340 Climbing Cleveland Center
11:44AM 42.0958 -83.2417 106° East 302 348 7,700 2,460 Climbing Cleveland Center
11:44AM 42.1219 -83.1922 55° Northeast 303 349 9,000 2,220 Climbing Cleveland Center
11:45AM 42.1719 -83.1047 52° Northeast 304 350 11,100 1,620 Climbing Cleveland Center
11:46AM 42.2306 -83.0006 53° Northeast 323 372 12,300 1,200 Climbing Cleveland Center
11:47AM 42.2933 -82.8822 54° Northeast 357 411 13,600 1,260 Climbing Cleveland Center
11:48AM 42.3211 -82.7372 75° East 377 434 14,900 1,380 Climbing Cleveland Center
11:49AM 42.3447 -82.5889 78° East 385 443 16,400 1,500 Climbing Cleveland Center
11:50AM 42.3681 -82.4381 78° East 396 456 17,900 1,560 Climbing Cleveland Center
11:51AM 42.3619 -82.2889 93° East 396 456 19,600 1,320 Climbing Cleveland Center
11:52AM 42.3558 -82.1369 93° East 401 461 20,600 1,020 Climbing Cleveland Center
11:53AM 42.3475 -81.9767 94° East 418 481 21,700 1,020 Climbing Cleveland Center
11:54AM 42.3411 -81.8192 93° East 424 488 22,700 900 Climbing Cleveland Center
11:55AM 42.3361 -81.6814 93° East 424 488 23,500 900 Climbing Cleveland Center
11:56AM 42.3272 -81.5183 94° East 424 488 24,600 1,020 Climbing Cleveland Center
11:57AM 42.3200 -81.3611 94° East 424 488 25,600 840 Climbing Cleveland Center
11:58AM 42.3106 -81.1981 94° East 424 488 26,300 600 Climbing Cleveland Center
11:59AM 42.3031 -81.0353 94° East 424 488 26,900 600 Climbing Cleveland Center
12:00PM 42.2953 -80.8497 93° East 438 504 27,500 600 Climbing Cleveland Center
12:01PM 42.2872 -80.6842 94° East 443 510 28,100 600 Climbing Cleveland Center
12:02PM 42.2767 -80.5158 95° East 443 510 28,700 420 Climbing Cleveland Center
12:03PM 42.2661 -80.3475 95° East 443 510 29,000 120 Climbing Cleveland Center
12:04PM 42.2553 -80.1708 95° East 455 524 29,000  Level Cleveland Center
12:05PM 42.2442 -79.9969 95° East 465 535 29,000  Level Cleveland Center
12:06PM 42.2347 -79.8203 94° East 465 535 29,000  Level Cleveland Center
12:07PM 42.2231 -79.6439 95° East 465 535 29,000  Level Cleveland Center
12:08PM 42.2131 -79.4675 94° East 465 535 29,000  Level Cleveland Center
12:09PM 42.1986 -79.2939 96° East 465 535 29,000  Level Cleveland Center
12:10PM 42.1903 -79.1147 94° East 465 535 29,000  Level Cleveland Center
12:11PM 42.2131 -78.9347 80° East 470 541 29,000  Level Cleveland Center
12:12PM 42.2372 -78.7519 80° East 482 555 29,000  Level Cleveland Center
12:13PM 42.2592 -78.5661 81° East 488 562 29,000  Level Cleveland Center
12:14PM 42.2828 -78.3800 80° East 488 562 29,000  Level Cleveland Center
12:15PM 42.3061 -78.1911 80° East 495 570 29,000  Level Cleveland Center
12:16PM 42.3272 -78.0078 81° East 495 570 29,000  Level Cleveland Center
12:17PM 42.3500 -77.8214 81° East 500 575 29,000  Level Cleveland Center
12:18PM 42.3725 -77.6347 81° East 500 575 29,000  Level Cleveland Center
12:19PM 42.3925 -77.4483 82° East 505 581 29,000  Level Cleveland Center
12:22PM 42.4417 -77.0128 81° East 515 593 29,000  Level Boston Center
12:23PM 42.4617 -76.8228 82° East 515 593 29,000  Level Boston Center
12:24PM 42.4814 -76.6353 82° East 509 586 29,000  Level Boston Center
12:25PM 42.5028 -76.4481 81° East 504 580 29,000  Level Boston Center
12:26PM 42.5267 -76.2381 81° East 506 582 29,000  Level Boston Center
12:27PM 42.5450 -76.0533 82° East 506 582 29,000  Level Boston Center
12:28PM 42.5636 -75.8625 82° East 501 577 29,000  Level Boston Center
12:29PM 42.5817 -75.6747 82° East 501 577 29,000  Level Boston Center
12:30PM 42.5992 -75.4864 83° East 501 577 29,000  Level Boston Center
12:31PM 42.6167 -75.3011 83° East 501 577 29,000  Level Boston Center
12:32PM 42.6336 -75.1128 83° East 501 577 29,000  Level Boston Center
12:33PM 42.6533 -74.8933 83° East 496 571 29,000  Level Boston Center
12:34PM 42.6717 -74.7019 83° East 501 577 29,000  Level Boston Center
12:35PM 42.6878 -74.5189 83° East 496 571 29,000  Level Boston Center
12:36PM 42.7036 -74.3331 83° East 496 571 29,000  Level Boston Center
12:37PM 42.7169 -74.1469 84° East 496 571 29,000  Level Boston Center
12:38PM 42.7342 -73.9636 83° East 496 571 29,000 -480 Level Boston Center
12:39PM 42.7467 -73.7831 85° East 491 565 28,100 -1,020 Descending Boston Center
12:40PM 42.7569 -73.6219 85° East 485 558 26,900 -1,380 Descending Boston Center
12:41PM 42.7631 -73.4017 88° East 480 552 25,100 -1,800 Descending Boston Center
12:42PM 42.7708 -73.2208 87° East 480 552 23,400 -1,680 Descending Boston Center
12:43PM 42.7761 -73.0453 88° East 469 540 21,800 -1,380 Descending Boston Center
12:44PM 42.7789 -72.8503 89° East 475 547 20,600 -1,560 Descending Boston Center
12:45PM 42.7856 -72.7061 86° East 458 527 18,800 -2,280 Descending Boston Center
12:46PM 42.7900 -72.5447 88° East 433 498 16,200 -2,700 Descending Boston Center
12:47PM 42.7922 -72.3919 89° East 418 481 13,400 -2,580 Descending Boston Center
12:48PM 42.8044 -72.2278 84° East 400 460 11,100 -1,740 Descending Boston Center
12:49PM 42.8231 -72.1117 78° East 364 419 9,900 -1,080 Descending Boston Center
12:50PM 42.8392 -71.9758 81° East 333 383 9,000 -480 Descending Boston Center
12:51PM 42.8325 -71.8739 95° East 309 356 9,000 -300 Level Boston Center
12:52PM 42.8256 -71.7436 94° East 309 356 8,500 -1,020 Descending Boston Center
12:53PM 42.8186 -71.6447 95° East 309 356 7,000 -1,680 Descending Boston Center
12:54PM 42.7992 -71.5458 105° East 257 296 5,100 -1,560 Descending Boston Center
12:55PM 42.7778 -71.4756 113° Southeast 206 237 3,900 -1,080 Descending Boston Center
12:56PM 42.7606 -71.4192 113° Southeast 201 231 3,000 -900 Descending Boston Center
12:57PM 42.7744 -71.3428 76° East 169 194 2,200 -540 Descending Boston Center
12:58PM 42.8289 -71.3728 338° Northwest 112 129 2,000 -420 Descending Boston Center
12:59PM 42.8731 -71.4003 335° Northwest 153 176 1,400 -780 Descending Boston Center
01:00PM 42.9147 -71.4253 336° Northwest 164 189 500 -480 Descending Boston Center
01:01PM 42.9525 -71.4500 334° Northwest 164 189 500  Level Boston Center